Time;durP1;ratioP1;P1;durP2;ratioP2;P2;SDS_P1;SDS_P2;PMS_P1;PMS_P2;Temp;Humidity;BMP_temperature;BMP_pressure;BME280_temperature;BME280_humidity;BME280_pressure;Samples;Min_cycle;Max_cycle;Signal;HPM_P1;HPM_P2
2021/03/20 00:01:22;;;;;;;6.32;5.10;;;18.50;66.50;;;;;;5049128;28;20029;-40
2021/03/20 00:03:47;;;;;;;6.00;4.68;;;18.50;65.60;;;;;;5049431;28;20024;-39
2021/03/20 00:06:13;;;;;;;7.70;4.43;;;18.50;65.70;;;;;;5048917;28;20034;-39
2021/03/20 00:08:39;;;;;;;5.43;3.97;;;18.50;65.70;;;;;;5051372;28;20029;-38
2021/03/20 00:11:05;;;;;;;6.18;4.13;;;18.50;65.60;;;;;;5052042;28;20056;-38
2021/03/20 00:13:30;;;;;;;5.40;4.60;;;18.50;65.70;;;;;;5029731;28;20520;-40
2021/03/20 00:15:56;;;;;;;4.45;4.05;;;18.50;65.40;;;;;;5048802;28;20047;-40
2021/03/20 00:18:23;;;;;;;5.07;4.57;;;18.50;65.40;;;;;;5050291;28;20727;-41
2021/03/20 00:20:48;;;;;;;5.15;4.18;;;18.50;65.50;;;;;;5052485;28;20037;-40
2021/03/20 00:23:14;;;;;;;6.43;4.25;;;18.60;65.40;;;;;;5045641;28;20029;-40
2021/03/20 00:25:39;;;;;;;4.03;3.55;;;18.60;65.30;;;;;;5044465;28;20032;-41
2021/03/20 00:28:07;;;;;;;4.32;3.58;;;18.60;65.10;;;;;;5048721;28;20029;-40
2021/03/20 00:30:32;;;;;;;3.58;3.25;;;18.70;64.60;;;;;;5049162;28;20101;-40
2021/03/20 00:32:58;;;;;;;3.33;3.03;;;18.60;64.90;;;;;;5051247;28;20483;-40
2021/03/20 00:35:23;;;;;;;3.75;3.45;;;18.60;65.00;;;;;;5035345;28;20022;-41
2021/03/20 00:37:50;;;;;;;5.13;3.97;;;18.70;64.80;;;;;;5044943;28;20017;-38
2021/03/20 00:40:18;;;;;;;3.50;3.20;;;18.60;64.80;;;;;;5048876;28;20129;-39
2021/03/20 00:42:43;;;;;;;3.92;3.63;;;18.60;64.60;;;;;;5044737;28;20827;-40
2021/03/20 00:45:10;;;;;;;4.32;3.63;;;18.70;64.60;;;;;;5033405;28;20176;-40
2021/03/20 00:47:36;;;;;;;3.83;2.97;;;18.60;64.50;;;;;;5050239;28;20023;-40
2021/03/20 00:50:02;;;;;;;3.50;3.20;;;18.70;64.50;;;;;;5049761;28;20024;-40
2021/03/20 00:52:28;;;;;;;3.65;3.22;;;18.70;64.30;;;;;;5048391;28;20016;-39
2021/03/20 00:54:54;;;;;;;3.75;3.20;;;18.70;64.20;;;;;;5040275;28;20112;-39
2021/03/20 00:57:19;;;;;;;3.95;2.90;;;18.80;64.00;;;;;;5051679;28;20025;-39
2021/03/20 00:59:47;;;;;;;3.15;2.85;;;18.80;64.00;;;;;;5049807;28;20098;-38
2021/03/20 01:02:13;;;;;;;3.03;2.72;;;18.80;63.80;;;;;;5046677;28;20025;-40
2021/03/20 01:04:38;;;;;;;2.80;2.60;;;18.80;63.80;;;;;;5048720;28;20048;-43
2021/03/20 01:07:04;;;;;;;2.70;2.50;;;18.80;63.50;;;;;;5049107;28;20025;-42
2021/03/20 01:09:31;;;;;;;2.75;2.55;;;18.80;63.60;;;;;;5049643;28;20064;-41
2021/03/20 01:11:56;;;;;;;3.20;2.50;;;18.80;63.60;;;;;;5039963;28;20036;-42
2021/03/20 01:14:22;;;;;;;2.97;2.72;;;18.80;63.70;;;;;;5049466;28;20037;-41
2021/03/20 01:16:47;;;;;;;2.72;2.50;;;18.80;63.50;;;;;;5042925;28;20103;-42
2021/03/20 01:19:13;;;;;;;2.92;2.58;;;18.80;63.60;;;;;;5045081;28;20592;-43
2021/03/20 01:21:38;;;;;;;2.92;2.45;;;18.80;63.70;;;;;;5043284;28;20032;-43
2021/03/20 01:24:04;;;;;;;3.00;2.70;;;18.80;63.60;;;;;;5049769;28;20088;-41
2021/03/20 01:26:30;;;;;;;2.88;2.67;;;18.80;63.40;;;;;;5037965;28;20036;-39
2021/03/20 01:28:55;;;;;;;2.53;2.33;;;18.80;64.20;;;;;;5041528;28;20446;-41
2021/03/20 01:31:21;;;;;;;2.17;2.00;;;18.80;63.70;;;;;;5041361;28;20112;-40
2021/03/20 01:33:47;;;;;;;2.80;2.60;;;18.70;63.70;;;;;;5048011;28;20112;-42
2021/03/20 01:36:12;;;;;;;2.53;2.33;;;18.80;63.60;;;;;;5036441;28;20036;-42
2021/03/20 01:38:38;;;;;;;2.42;2.22;;;18.70;63.70;;;;;;5048444;28;20091;-40
2021/03/20 01:41:06;;;;;;;2.70;2.50;;;18.70;63.70;;;;;;5046086;28;20037;-40
2021/03/20 01:43:33;;;;;;;2.47;2.28;;;18.80;63.60;;;;;;5040776;28;20028;-42
2021/03/20 01:46:40;;;;;;;2.33;2.03;;;18.70;63.60;;;;;;5042675;28;20142;-42
2021/03/20 01:49:21;;;;;;;2.40;2.20;;;18.80;63.60;;;;;;5048660;28;20045;-38
2021/03/20 01:52:00;;;;;;;2.15;2.03;;;18.70;63.40;;;;;;5048364;28;20017;-43
2021/03/20 01:54:31;;;;;;;2.50;2.30;;;18.70;63.50;;;;;;5041129;28;20029;-43
2021/03/20 01:56:57;;;;;;;2.15;2.05;;;18.70;63.70;;;;;;5019291;28;20041;-43
2021/03/20 01:59:23;;;;;;;2.65;2.30;;;18.70;63.60;;;;;;5041612;28;20030;-40
2021/03/20 02:01:48;;;;;;;2.38;2.17;;;18.70;63.60;;;;;;5045696;28;20103;-42
2021/03/20 02:04:15;;;;;;;2.30;2.20;;;18.70;63.40;;;;;;5051330;28;20108;-43
2021/03/20 02:06:41;;;;;;;2.25;2.05;;;18.70;63.40;;;;;;5052999;28;20104;-40
2021/03/20 02:09:08;;;;;;;2.35;2.17;;;18.70;63.50;;;;;;5050329;28;20117;-42
2021/03/20 02:11:54;;;;;;;2.13;1.92;;;18.70;63.30;;;;;;5035094;28;20128;-42
2021/03/20 02:14:34;;;;;;;2.13;2.03;;;18.70;63.30;;;;;;5034625;28;20048;-43
2021/03/20 02:17:18;;;;;;;2.08;1.95;;;18.70;63.40;;;;;;5044646;28;20128;-41
2021/03/20 02:19:58;;;;;;;1.75;1.65;;;18.70;63.40;;;;;;5053101;28;20037;-41
2021/03/20 02:22:43;;;;;;;2.67;2.10;;;18.70;63.40;;;;;;5052338;28;20032;-42
2021/03/20 02:25:16;;;;;;;2.15;1.95;;;18.70;63.40;;;;;;5049825;28;20112;-43
2021/03/20 02:28:32;;;;;;;1.75;1.65;;;18.70;63.30;;;;;;5066016;28;20025;-42
2021/03/20 02:31:18;;;;;;;1.80;1.70;;;18.70;63.20;;;;;;4960119;28;20030;-42
2021/03/20 02:34:13;;;;;;;2.10;1.80;;;18.70;63.10;;;;;;4961121;28;20114;-41
2021/03/20 02:36:59;;;;;;;1.80;1.70;;;18.70;63.10;;;;;;4986738;28;20564;-40
2021/03/20 02:39:50;;;;;;;2.20;2.00;;;18.70;63.20;;;;;;4958697;28;20047;-42
2021/03/20 02:42:42;;;;;;;2.00;1.90;;;18.70;63.00;;;;;;4971651;28;20074;-39
2021/03/20 02:45:10;;;;;;;1.60;1.50;;;18.80;63.00;;;;;;4971063;28;20496;-43
2021/03/20 02:47:42;;;;;;;2.53;1.70;;;18.70;63.00;;;;;;4959444;28;20030;-42
2021/03/20 02:50:12;;;;;;;1.88;1.70;;;18.80;63.10;;;;;;4962793;28;20533;-42
2021/03/20 02:52:47;;;;;;;1.52;1.42;;;18.70;63.10;;;;;;4955754;28;20058;-42
2021/03/20 02:55:18;;;;;;;1.70;1.60;;;18.70;63.10;;;;;;4962208;28;20504;-42
2021/03/20 02:58:02;;;;;;;1.58;1.48;;;18.70;63.20;;;;;;4984692;28;20126;-43
2021/03/20 03:00:33;;;;;;;1.40;1.30;;;18.70;63.20;;;;;;4951635;28;20035;-44
2021/03/20 03:02:58;;;;;;;1.45;1.35;;;18.70;63.10;;;;;;4959136;28;20106;-40
2021/03/20 03:05:31;;;;;;;1.50;1.30;;;18.70;63.20;;;;;;5026530;28;20045;-40
2021/03/20 03:07:59;;;;;;;1.83;1.73;;;18.70;63.20;;;;;;5029382;28;20025;-41
2021/03/20 03:10:28;;;;;;;1.67;1.58;;;18.70;63.00;;;;;;5030484;28;20398;-42
2021/03/20 03:12:58;;;;;;;1.45;1.38;;;18.70;63.00;;;;;;5028268;28;20017;-41
2021/03/20 03:15:28;;;;;;;1.83;1.73;;;18.70;63.00;;;;;;5034230;28;20080;-40
2021/03/20 03:18:16;;;;;;;1.73;1.63;;;18.70;63.00;;;;;;5035905;28;20104;-43
2021/03/20 03:20:50;;;;;;;1.45;1.35;;;18.70;63.00;;;;;;5042649;28;20037;-42
2021/03/20 03:23:17;;;;;;;1.75;1.50;;;18.70;62.80;;;;;;5051904;28;20033;-42
2021/03/20 03:25:44;;;;;;;1.65;1.55;;;18.70;62.80;;;;;;5049278;28;20032;-41
2021/03/20 03:28:11;;;;;;;1.55;1.42;;;18.70;62.80;;;;;;5037637;28;20029;-42
2021/03/20 03:30:36;;;;;;;1.70;1.60;;;18.70;62.90;;;;;;5034136;28;20021;-42
2021/03/20 03:33:10;;;;;;;1.90;1.77;;;18.60;63.30;;;;;;5037587;28;20148;-39
2021/03/20 03:35:37;;;;;;;1.42;1.33;;;18.60;63.30;;;;;;5051543;28;20112;-42
2021/03/20 03:38:20;;;;;;;1.60;1.50;;;18.60;63.10;;;;;;5046406;28;20490;-43
2021/03/20 03:40:55;;;;;;;1.40;1.30;;;18.60;63.10;;;;;;5048260;28;20117;-42
2021/03/20 03:43:21;;;;;;;1.70;1.60;;;18.60;63.00;;;;;;5024772;28;20017;-41
2021/03/20 03:45:47;;;;;;;1.30;1.20;;;18.60;63.10;;;;;;5042382;28;20364;-44
2021/03/20 03:48:13;;;;;;;1.48;1.17;;;18.60;63.10;;;;;;5051052;28;20497;-38
2021/03/20 03:50:40;;;;;;;1.33;1.17;;;18.60;63.10;;;;;;5053398;28;20021;-41
2021/03/20 03:53:06;;;;;;;1.38;1.27;;;18.60;63.00;;;;;;5066005;28;20459;-41
2021/03/20 03:55:32;;;;;;;1.50;1.40;;;18.60;62.90;;;;;;5030476;28;20071;-43
2021/03/20 03:58:01;;;;;;;1.27;1.17;;;18.70;62.70;;;;;;5046139;28;20399;-42
2021/03/20 04:00:40;;;;;;;1.20;1.10;;;18.70;62.70;;;;;;5044033;28;20037;-41
2021/03/20 04:03:17;;;;;;;1.40;1.30;;;18.70;62.80;;;;;;5048578;28;20032;-41
2021/03/20 04:06:26;;;;;;;1.23;1.05;;;18.60;62.80;;;;;;5052982;28;20067;-44
2021/03/20 04:09:15;;;;;;;1.20;1.20;;;18.70;62.80;;;;;;5043830;28;20041;-40
2021/03/20 04:11:53;;;;;;;1.20;1.10;;;18.60;62.60;;;;;;5045951;28;20116;-43
2021/03/20 04:14:34;;;;;;;1.30;1.20;;;18.70;62.60;;;;;;5041665;28;20035;-42
2021/03/20 04:17:34;;;;;;;1.30;1.20;;;18.70;62.60;;;;;;5034867;28;20045;-40
2021/03/20 04:20:21;;;;;;;1.55;1.45;;;18.70;62.30;;;;;;5045732;28;20041;-40
2021/03/20 04:23:21;;;;;;;0.90;0.90;;;18.70;62.40;;;;;;5031163;28;20017;-40
2021/03/20 04:25:51;;;;;;;1.05;0.95;;;18.70;62.30;;;;;;5047875;28;20082;-41
2021/03/20 04:28:53;;;;;;;1.15;1.10;;;18.70;62.30;;;;;;5040160;28;20363;-42
2021/03/20 04:31:23;;;;;;;1.15;1.05;;;18.70;62.30;;;;;;4990177;28;20029;-42
2021/03/20 04:34:00;;;;;;;1.30;1.20;;;18.70;62.30;;;;;;4993023;28;20091;-43
2021/03/20 04:36:37;;;;;;;1.20;1.10;;;18.70;62.30;;;;;;4978227;28;20030;-41
2021/03/20 04:39:04;;;;;;;1.17;1.13;;;18.70;62.20;;;;;;4993572;28;21100;-43
2021/03/20 04:41:30;;;;;;;0.95;0.95;;;18.70;62.30;;;;;;4986727;28;20064;-43
2021/03/20 04:43:55;;;;;;;0.85;0.80;;;18.70;62.20;;;;;;4988188;28;20026;-44
2021/03/20 04:46:22;;;;;;;0.88;0.88;;;18.70;62.20;;;;;;4972041;28;20041;-42
2021/03/20 04:48:53;;;;;;;1.08;1.00;;;18.70;62.20;;;;;;4991246;28;20025;-42
2021/03/20 04:51:24;;;;;;;1.15;1.05;;;18.70;62.30;;;;;;4974019;28;20864;-43
2021/03/20 04:54:04;;;;;;;1.10;1.00;;;18.60;62.30;;;;;;4987411;28;20025;-45
2021/03/20 04:56:29;;;;;;;1.20;1.10;;;18.70;62.30;;;;;;4999119;28;20037;-43
2021/03/20 04:58:58;;;;;;;0.80;0.80;;;18.70;62.30;;;;;;4970347;28;20042;-40
2021/03/20 05:01:26;;;;;;;1.23;1.13;;;18.70;62.20;;;;;;4974854;28;20042;-42
2021/03/20 05:04:00;;;;;;;0.80;0.80;;;18.70;62.10;;;;;;4986775;28;20540;-42
2021/03/20 05:06:25;;;;;;;0.97;0.97;;;18.70;62.10;;;;;;5031565;28;20035;-37
2021/03/20 05:08:56;;;;;;;0.98;0.90;;;18.70;62.10;;;;;;5017669;28;20633;-41
2021/03/20 05:11:33;;;;;;;0.95;0.80;;;18.70;62.20;;;;;;5046684;28;20029;-40
2021/03/20 05:14:12;;;;;;;1.00;1.00;;;18.60;62.10;;;;;;5081447;28;20103;-41
2021/03/20 05:16:46;;;;;;;0.80;0.80;;;18.60;62.20;;;;;;5045227;28;20126;-40
2021/03/20 05:19:11;;;;;;;;;;;18.60;62.20;;;;;;5049577;28;20116;-45
2021/03/20 05:21:42;;;;;;;0.85;0.85;;;18.60;62.20;;;;;;5049345;28;19980;-41
2021/03/20 05:24:10;;;;;;;1.05;1.00;;;18.60;62.20;;;;;;5049841;28;20024;-42
2021/03/20 05:26:35;;;;;;;0.82;0.70;;;18.60;62.20;;;;;;5049370;28;20082;-43
2021/03/20 05:29:01;;;;;;;0.95;0.85;;;18.60;62.20;;;;;;5048058;28;20116;-40
2021/03/20 05:31:27;;;;;;;0.88;0.80;;;18.60;62.20;;;;;;5049128;28;20036;-40
2021/03/20 05:33:53;;;;;;;1.42;1.10;;;18.60;62.20;;;;;;5031654;28;20625;-41
2021/03/20 05:36:18;;;;;;;0.90;0.90;;;18.60;62.20;;;;;;5032913;28;20099;-41
2021/03/20 05:38:46;;;;;;;0.80;0.80;;;18.60;62.20;;;;;;5050451;28;20066;-42
2021/03/20 05:41:36;;;;;;;0.70;0.70;;;18.60;62.10;;;;;;5046158;28;20080;-41
2021/03/20 05:44:26;;;;;;;0.60;0.60;;;18.60;62.20;;;;;;5026720;28;20182;-42
2021/03/20 05:47:10;;;;;;;0.60;0.60;;;18.60;62.20;;;;;;5041319;28;20120;-41
2021/03/20 05:50:06;;;;;;;1.30;0.93;;;18.60;62.10;;;;;;5033867;28;20024;-42
2021/03/20 05:52:32;;;;;;;0.70;0.70;;;18.60;62.10;;;;;;5046609;28;20017;-41
2021/03/20 05:55:12;;;;;;;1.00;0.90;;;18.60;62.20;;;;;;5046368;28;20030;-39
2021/03/20 05:57:49;;;;;;;1.63;0.85;;;18.60;62.20;;;;;;5044242;28;20035;-42
2021/03/20 06:00:33;;;;;;;0.90;0.90;;;18.50;62.10;;;;;;5024746;28;20495;-41
2021/03/20 06:03:19;;;;;;;0.60;0.60;;;18.60;62.30;;;;;;5059549;28;20028;-41
2021/03/20 06:05:50;;;;;;;0.80;0.60;;;18.50;62.20;;;;;;5045121;28;20187;-41
2021/03/20 06:08:53;;;;;;;0.80;0.80;;;18.50;62.20;;;;;;5046198;28;20036;-41
2021/03/20 06:11:56;;;;;;;0.60;0.60;;;18.50;62.10;;;;;;5045391;28;20029;-43
2021/03/20 06:14:43;;;;;;;0.80;0.80;;;18.50;62.30;;;;;;5048317;28;20430;-41
2021/03/20 06:17:12;;;;;;;0.80;0.80;;;18.50;62.20;;;;;;5045735;28;20196;-41
2021/03/20 06:19:54;;;;;;;0.80;0.80;;;18.50;62.20;;;;;;5044513;28;20563;-41
2021/03/20 06:22:35;;;;;;;0.93;0.90;;;18.50;62.20;;;;;;5046406;28;20037;-40
2021/03/20 06:25:33;;;;;;;0.82;0.60;;;18.50;62.20;;;;;;5045706;28;20029;-40
2021/03/20 06:27:58;;;;;;;0.70;0.70;;;18.50;62.10;;;;;;5045078;28;20041;-43
2021/03/20 06:30:44;;;;;;;0.60;0.60;;;18.50;62.20;;;;;;5030505;28;20532;-41
2021/03/20 06:33:34;;;;;;;0.70;0.70;;;18.50;62.10;;;;;;5030951;28;20033;-40
2021/03/20 06:36:25;;;;;;;0.70;0.70;;;18.50;62.20;;;;;;5042371;28;20440;-39
2021/03/20 06:38:57;;;;;;;0.70;0.70;;;18.50;62.20;;;;;;5050496;28;20109;-43
2021/03/20 06:41:27;;;;;;;0.80;0.80;;;18.50;62.10;;;;;;5029471;28;20033;-45
2021/03/20 06:43:59;;;;;;;0.70;0.70;;;18.50;62.10;;;;;;5051760;28;20021;-41
2021/03/20 06:46:33;;;;;;;0.55;0.55;;;18.50;62.10;;;;;;5049367;28;20025;-41
2021/03/20 06:48:58;;;;;;;3.40;0.82;;;18.50;62.20;;;;;;5051939;28;20029;-42
2021/03/20 06:51:24;;;;;;;0.85;0.85;;;18.40;62.30;;;;;;5050767;28;20036;-43
2021/03/20 06:53:58;;;;;;;0.70;0.70;;;18.30;62.80;;;;;;5052138;28;20036;-43
2021/03/20 06:56:25;;;;;;;2.30;1.00;;;18.10;64.40;;;;;;5049341;28;20032;-43
2021/03/20 06:58:50;;;;;;;0.95;0.95;;;17.90;65.70;;;;;;5052036;28;20025;-42
2021/03/20 07:01:19;;;;;;;1.02;0.82;;;17.80;65.10;;;;;;5050208;28;20033;-42
2021/03/20 07:03:58;;;;;;;1.23;1.13;;;17.80;65.40;;;;;;5051712;28;20399;-42
2021/03/20 07:06:37;;;;;;;1.88;1.00;;;17.80;65.90;;;;;;5023570;28;20163;-42
2021/03/20 07:09:04;;;;;;;1.30;1.20;;;17.80;65.80;;;;;;5051299;28;20111;-44
2021/03/20 07:11:31;;;;;;;0.90;0.90;;;17.70;65.40;;;;;;5037920;28;20148;-41
2021/03/20 07:14:02;;;;;;;0.82;0.75;;;17.70;65.60;;;;;;5047909;28;20029;-41
2021/03/20 07:16:28;;;;;;;1.08;1.00;;;17.70;65.20;;;;;;5051903;28;20037;-41
2021/03/20 07:18:55;;;;;;;2.97;1.10;;;17.70;65.40;;;;;;5051490;28;20025;-41
2021/03/20 07:21:38;;;;;;;1.00;1.00;;;17.80;65.10;;;;;;5050310;28;20029;-41
2021/03/20 07:24:21;;;;;;;1.20;0.80;;;17.80;65.30;;;;;;5037313;28;20179;-38
2021/03/20 07:26:58;;;;;;;1.30;1.13;;;17.90;64.80;;;;;;5040830;28;20025;-39
2021/03/20 07:29:47;;;;;;;1.00;1.00;;;17.80;64.80;;;;;;5051756;28;20414;-41
2021/03/20 07:32:26;;;;;;;1.88;1.10;;;17.80;65.10;;;;;;5050319;28;20025;-40
2021/03/20 07:34:56;;;;;;;1.08;0.98;;;17.70;65.10;;;;;;5047832;28;20090;-40
2021/03/20 07:37:24;;;;;;;1.15;1.13;;;17.70;64.90;;;;;;5049280;28;20031;-42
2021/03/20 07:39:59;;;;;;;1.77;1.15;;;17.70;65.00;;;;;;5051202;28;20040;-38
2021/03/20 07:42:38;;;;;;;1.17;1.00;;;17.70;65.00;;;;;;5045778;28;20029;-39
2021/03/20 07:45:19;;;;;;;1.08;1.00;;;17.70;64.50;;;;;;5046984;28;20025;-41
2021/03/20 07:47:54;;;;;;;1.08;0.80;;;17.80;64.30;;;;;;5049727;28;20053;-41
2021/03/20 07:50:24;;;;;;;0.80;0.80;;;17.90;63.60;;;;;;5050739;28;20029;-41
2021/03/20 07:53:04;;;;;;;1.67;0.90;;;18.00;63.50;;;;;;5051744;28;20052;-40
2021/03/20 07:55:52;;;;;;;1.92;1.08;;;18.00;63.60;;;;;;5049363;28;20025;-40
2021/03/20 07:58:22;;;;;;;0.73;0.68;;;18.00;63.40;;;;;;5014640;28;20389;-39
2021/03/20 08:00:48;;;;;;;0.88;0.80;;;18.20;62.70;;;;;;5013280;28;20041;-41
2021/03/20 08:03:17;;;;;;;1.25;0.75;;;18.20;62.20;;;;;;5016585;28;20087;-40
2021/03/20 08:05:43;;;;;;;1.45;1.23;;;18.20;62.70;;;;;;4997103;28;20063;-40
2021/03/20 08:08:22;;;;;;;0.80;0.80;;;18.20;62.70;;;;;;5026122;28;20029;-41
2021/03/20 08:10:55;;;;;;;1.05;0.80;;;18.20;62.50;;;;;;5024520;28;20059;-42
2021/03/20 08:13:57;;;;;;;6.73;0.90;;;18.30;62.60;;;;;;5027498;28;20025;-41
2021/03/20 08:16:24;;;;;;;1.45;0.90;;;18.30;62.50;;;;;;4947167;28;20081;-38
2021/03/20 08:18:52;;;;;;;2.65;0.82;;;18.30;62.50;;;;;;4965510;28;20109;-44
2021/03/20 08:21:36;;;;;;;1.20;0.90;;;18.30;62.50;;;;;;4964508;28;20045;-43
2021/03/20 08:24:35;;;;;;;0.95;0.70;;;18.20;62.60;;;;;;4965051;28;20654;-42
2021/03/20 08:27:38;;;;;;;0.80;0.80;;;18.10;62.80;;;;;;4949335;28;20587;-41
2021/03/20 08:30:21;;;;;;;1.20;1.00;;;18.00;63.20;;;;;;4947692;28;20696;-41
2021/03/20 08:33:18;;;;;;;3.03;0.80;;;18.00;63.30;;;;;;4966094;28;20082;-37
2021/03/20 08:35:48;;;;;;;1.35;1.25;;;18.10;64.30;;;;;;4977696;28;20042;-39
2021/03/20 08:38:26;;;;;;;1.38;1.27;;;18.10;63.40;;;;;;4968079;28;20038;-42
2021/03/20 08:40:54;;;;;;;1.27;0.90;;;18.10;63.40;;;;;;4967260;28;20034;-39
2021/03/20 08:43:38;;;;;;;1.15;1.05;;;18.10;63.30;;;;;;4957299;28;20048;-41
2021/03/20 08:46:06;;;;;;;1.15;0.80;;;18.10;63.10;;;;;;4981463;28;20089;-37
2021/03/20 08:48:51;;;;;;;1.15;1.02;;;18.10;62.90;;;;;;4983874;28;20113;-45
2021/03/20 08:51:23;;;;;;;2.33;1.35;;;18.20;63.10;;;;;;5038815;28;20040;-44
2021/03/20 08:54:17;;;;;;;3.42;3.15;;;18.20;62.30;;;;;;5055475;28;20372;-38
2021/03/20 08:57:10;;;;;;;6.28;5.53;;;18.20;61.50;;;;;;5053601;28;20133;-40
2021/03/20 08:59:47;;;;;;;24.13;16.25;;;18.20;61.50;;;;;;5054993;28;20099;-39
2021/03/20 09:02:25;;;;;;;36.90;27.10;;;18.20;61.20;;;;;;5048294;28;20087;-40
2021/03/20 09:04:55;;;;;;;37.40;26.35;;;18.20;61.50;;;;;;5045958;28;20041;-47
2021/03/20 09:07:34;;;;;;;29.75;21.85;;;18.20;61.70;;;;;;5050623;28;20070;-45
2021/03/20 09:10:01;;;;;;;24.00;19.63;;;18.30;61.50;;;;;;5032395;28;20029;-41
2021/03/20 09:12:43;;;;;;;24.15;18.67;;;18.30;61.50;;;;;;4696288;28;10000436;-39
2021/03/20 09:15:25;;;;;;;24.35;17.17;;;18.30;61.50;;;;;;5044510;28;20090;-40
2021/03/20 09:17:51;;;;;;;23.00;16.95;;;18.40;61.80;;;;;;5036436;28;20029;-39
2021/03/20 09:20:43;;;;;;;19.60;15.05;;;18.50;61.70;;;;;;5045688;28;20473;-38
2021/03/20 09:23:20;;;;;;;20.10;14.05;;;18.60;61.30;;;;;;5032031;28;20122;-44
2021/03/20 09:25:45;;;;;;;20.90;14.43;;;18.60;61.20;;;;;;5048865;28;20032;-36
2021/03/20 09:28:27;;;;;;;19.80;14.48;;;18.60;61.40;;;;;;5049541;28;20414;-39
2021/03/20 09:30:57;;;;;;;20.33;15.70;;;18.60;61.30;;;;;;5050298;28;20422;-47
2021/03/20 09:33:25;;;;;;;18.73;15.00;;;18.70;61.10;;;;;;5049822;28;20074;-46
2021/03/20 09:35:56;;;;;;;18.88;13.98;;;18.70;61.40;;;;;;5045822;28;20447;-43
2021/03/20 09:38:34;;;;;;;15.65;12.55;;;18.80;61.20;;;;;;5043035;28;20029;-38
2021/03/20 09:41:09;;;;;;;15.52;12.90;;;18.90;60.90;;;;;;5044672;28;20037;-45
2021/03/20 09:43:53;;;;;;;18.23;13.48;;;19.00;60.90;;;;;;5039682;28;20067;-41
2021/03/20 09:46:38;;;;;;;16.60;13.52;;;18.90;60.90;;;;;;5041439;28;20033;-45
2021/03/20 09:49:23;;;;;;;15.02;12.25;;;18.90;61.10;;;;;;5044735;28;20036;-43
2021/03/20 09:51:58;;;;;;;17.08;13.02;;;18.90;61.30;;;;;;5040585;28;20025;-41
2021/03/20 09:54:24;;;;;;;15.40;12.13;;;18.90;62.10;;;;;;5053691;28;20037;-37
2021/03/20 09:56:54;;;;;;;15.10;11.60;;;19.00;61.70;;;;;;5046287;28;20027;-48
2021/03/20 09:59:29;;;;;;;13.57;11.52;;;19.00;62.10;;;;;;5052552;28;20040;-48
2021/03/20 10:02:07;;;;;;;14.25;11.27;;;19.10;62.10;;;;;;5048318;28;20071;-41
2021/03/20 10:04:51;;;;;;;13.73;10.95;;;19.10;62.00;;;;;;5044395;28;20021;-42
2021/03/20 10:07:26;;;;;;;13.25;10.80;;;19.00;62.30;;;;;;5049442;28;20090;-48
2021/03/20 10:10:10;;;;;;;13.65;11.23;;;19.10;62.30;;;;;;5049558;28;20017;-47
2021/03/20 10:12:45;;;;;;;17.10;11.35;;;19.10;64.40;;;;;;5050494;28;20040;-42
2021/03/20 10:15:17;;;;;;;15.13;12.15;;;19.20;63.80;;;;;;5050923;28;20033;-38
2021/03/20 10:18:12;;;;;;;13.30;11.35;;;19.20;63.70;;;;;;5049032;28;20771;-37
2021/03/20 10:20:50;;;;;;;13.68;11.27;;;19.20;64.30;;;;;;5041158;28;20059;-38
2021/03/20 10:23:42;;;;;;;14.52;11.20;;;19.20;64.50;;;;;;5045426;28;20665;-38
2021/03/20 10:26:22;;;;;;;14.70;11.20;;;19.30;64.90;;;;;;5054549;28;20044;-41
2021/03/20 10:28:53;;;;;;;11.95;10.05;;;19.30;65.50;;;;;;5054275;28;20509;-39
2021/03/20 10:31:19;;;;;;;12.27;10.68;;;19.20;65.10;;;;;;5054302;28;20028;-46
2021/03/20 10:33:46;;;;;;;14.02;10.60;;;19.20;65.20;;;;;;5053020;28;20029;-42
2021/03/20 10:36:14;;;;;;;11.02;9.85;;;19.20;65.40;;;;;;5030305;28;20526;-40
2021/03/20 10:38:41;;;;;;;14.68;9.05;;;19.30;65.10;;;;;;5052704;28;20103;-41
2021/03/20 10:41:09;;;;;;;12.77;9.63;;;19.20;65.40;;;;;;5055661;28;20036;-41
2021/03/20 10:43:47;;;;;;;12.27;9.50;;;19.30;65.10;;;;;;5041151;28;20017;-40
2021/03/20 10:46:18;;;;;;;14.55;10.10;;;19.30;64.80;;;;;;5033455;28;20523;-41
2021/03/20 10:48:43;;;;;;;10.57;9.52;;;19.30;64.20;;;;;;5057320;28;20120;-42
2021/03/20 10:51:09;;;;;;;10.23;9.10;;;19.30;64.50;;;;;;5036448;28;20143;-43
2021/03/20 10:53:45;;;;;;;15.15;9.63;;;19.30;64.80;;;;;;5059132;28;20024;-41
2021/03/20 10:56:30;;;;;;;12.25;9.38;;;19.40;64.90;;;;;;5033732;28;20037;-40
2021/03/20 10:58:55;;;;;;;;;;;19.50;64.50;;;;;;5044058;28;20552;-42
2021/03/20 11:01:34;;;;;;;11.50;8.75;;;19.60;64.70;;;;;;5049603;28;19970;-43
2021/03/20 11:04:00;;;;;;;11.63;8.95;;;19.60;64.60;;;;;;5055241;28;20485;-42
2021/03/20 11:06:26;;;;;;;10.30;9.30;;;19.70;64.60;;;;;;5047562;28;20030;-40
2021/03/20 11:09:18;;;;;;;9.60;8.43;;;19.60;63.70;;;;;;5054974;28;20060;-41
2021/03/20 11:11:43;;;;;;;9.82;8.63;;;19.70;64.50;;;;;;5041549;28;20021;-40
2021/03/20 11:14:11;;;;;;;10.05;8.85;;;19.70;64.90;;;;;;5060183;28;20437;-40
2021/03/20 11:17:00;;;;;;;9.77;8.52;;;19.70;64.90;;;;;;5049158;28;20082;-37
2021/03/20 11:19:32;;;;;;;9.70;8.70;;;19.60;64.60;;;;;;5049265;28;20029;-46
2021/03/20 11:22:14;;;;;;;9.90;8.77;;;19.70;64.60;;;;;;5055970;28;20032;-42
2021/03/20 11:24:40;;;;;;;12.50;9.32;;;19.70;64.60;;;;;;5052246;28;20016;-34
2021/03/20 11:27:23;;;;;;;11.48;8.30;;;19.60;64.80;;;;;;5054605;28;20394;-42
2021/03/20 11:29:52;;;;;;;9.32;8.32;;;19.60;64.60;;;;;;5048708;28;20520;-36
2021/03/20 11:32:40;;;;;;;9.35;8.35;;;19.60;64.50;;;;;;5045545;28;20025;-38
2021/03/20 11:35:15;;;;;;;10.15;8.30;;;19.60;64.50;;;;;;5027815;28;20033;-42
2021/03/20 11:37:40;;;;;;;9.38;8.48;;;19.70;64.50;;;;;;5047737;28;20036;-42
2021/03/20 11:40:08;;;;;;;8.88;8.00;;;19.70;64.40;;;;;;5028337;28;20045;-42
2021/03/20 11:42:37;;;;;;;8.55;6.88;;;19.70;64.30;;;;;;5050098;28;20033;-41
2021/03/20 11:45:29;;;;;;;8.40;7.60;;;19.70;64.50;;;;;;5035281;28;20571;-41
2021/03/20 11:47:56;;;;;;;8.93;7.78;;;19.80;64.10;;;;;;5042622;28;20041;-41
2021/03/20 11:50:27;;;;;;;8.27;7.47;;;19.80;63.70;;;;;;5031959;28;20424;-42
2021/03/20 11:53:20;;;;;;;7.88;7.18;;;19.80;63.80;;;;;;5043231;28;20112;-38
2021/03/20 11:55:46;;;;;;;7.53;6.82;;;19.80;64.40;;;;;;4998992;28;20041;-35
2021/03/20 11:58:28;;;;;;;7.65;6.82;;;19.90;64.20;;;;;;5008823;28;20104;-40
2021/03/20 12:00:55;;;;;;;7.82;7.13;;;19.90;63.90;;;;;;4967972;28;20598;-42
2021/03/20 12:03:20;;;;;;;8.82;7.93;;;19.90;64.20;;;;;;5002253;28;20029;-41
2021/03/20 12:05:46;;;;;;;8.27;7.45;;;19.90;64.10;;;;;;5000458;28;20104;-37
2021/03/20 12:08:24;;;;;;;12.90;7.55;;;19.90;63.90;;;;;;5016483;28;20108;-45
2021/03/20 12:11:10;;;;;;;7.35;6.68;;;19.90;64.00;;;;;;5007696;28;20712;-37
2021/03/20 12:13:41;;;;;;;9.05;6.85;;;19.90;63.70;;;;;;4981453;28;20088;-38
2021/03/20 12:16:07;;;;;;;6.78;6.20;;;20.00;63.60;;;;;;5005101;28;20100;-44
2021/03/20 12:18:33;;;;;;;6.32;5.82;;;19.90;63.50;;;;;;4993921;28;20093;-45
2021/03/20 12:21:05;;;;;;;6.60;6.10;;;19.90;63.40;;;;;;4995378;28;20062;-43
2021/03/20 12:23:31;;;;;;;6.63;5.55;;;19.90;63.20;;;;;;4985200;28;20045;-39
2021/03/20 12:25:58;;;;;;;6.60;6.03;;;19.90;63.00;;;;;;4974155;28;20034;-41
2021/03/20 12:28:38;;;;;;;7.72;6.25;;;19.90;63.00;;;;;;5004849;28;20489;-37
2021/03/20 12:31:13;;;;;;;7.03;6.40;;;20.10;63.30;;;;;;4999698;28;20037;-45
2021/03/20 12:33:49;;;;;;;6.15;5.65;;;20.20;62.80;;;;;;5040763;28;20060;-41
2021/03/20 12:36:17;;;;;;;6.40;5.80;;;20.20;62.40;;;;;;5047907;28;20036;-40
2021/03/20 12:38:43;;;;;;;7.88;5.47;;;20.00;62.50;;;;;;5050323;28;20402;-40
2021/03/20 12:41:15;;;;;;;5.57;5.13;;;20.00;63.00;;;;;;5057728;28;20036;-39
2021/03/20 12:43:41;;;;;;;5.57;4.90;;;20.00;63.00;;;;;;5056491;28;20031;-43
2021/03/20 12:46:09;;;;;;;7.60;5.55;;;20.00;63.00;;;;;;5045583;28;20040;-44
2021/03/20 12:48:37;;;;;;;5.43;5.03;;;20.00;62.60;;;;;;5047236;28;20109;-38
2021/03/20 12:51:06;;;;;;;5.15;4.55;;;20.00;62.30;;;;;;5046722;28;20060;-42
2021/03/20 12:53:31;;;;;;;5.80;4.50;;;20.00;62.10;;;;;;5052695;28;20044;-38
2021/03/20 12:55:57;;;;;;;5.43;4.80;;;20.10;61.90;;;;;;5054915;28;20024;-40
2021/03/20 12:58:22;;;;;;;5.65;4.85;;;20.00;62.20;;;;;;5052676;28;20539;-44
2021/03/20 13:00:48;;;;;;;5.10;4.70;;;20.00;62.40;;;;;;5044227;28;20073;-40
2021/03/20 13:03:14;;;;;;;5.13;4.78;;;20.00;62.40;;;;;;5043597;28;20043;-39
2021/03/20 13:05:40;;;;;;;5.00;4.60;;;20.10;62.30;;;;;;5045406;28;20036;-42
2021/03/20 13:08:06;;;;;;;5.40;5.00;;;20.10;62.00;;;;;;5043399;28;20040;-39
2021/03/20 13:10:32;;;;;;;4.65;4.30;;;20.10;62.10;;;;;;5044298;28;20032;-40
2021/03/20 13:12:57;;;;;;;4.70;4.30;;;20.10;62.50;;;;;;5043873;28;20021;-40
2021/03/20 13:15:24;;;;;;;4.68;4.38;;;20.10;62.20;;;;;;5043584;28;20041;-40
2021/03/20 13:17:50;;;;;;;4.80;4.00;;;20.10;62.20;;;;;;5051601;28;20021;-38